This is the latest recevied weather packets stored in our database for station/object EA1ZE. If no packets are shown the sender has not sent any weather packets the latest 10 day(s).
| Time | Temp. | Humidity | Pressure | Rain* | Wind** | Luminosity | Snow |
|---|---|---|---|---|---|---|---|
| 1788144327 | 15° C | 82% | 1018.6 hPa | 0 mm | - | - | - |
| 1788143424 | 15° C | 83% | 1018.6 hPa | 0 mm | - | - | - |
| 1788142525 | 15° C | 83% | 1018.5 hPa | 0 mm | - | - | - |
| 1788141623 | 15° C | 83% | 1018.5 hPa | 0 mm | - | - | - |
| 1788140723 | 15° C | 83% | 1018.5 hPa | 0 mm | - | - | - |
| 1788139822 | 15.56° C | 82% | 1018.6 hPa | 0 mm | - | - | - |
| 1788138930 | 15.56° C | 82% | 1018.5 hPa | 0 mm | - | - | - |
| 1788138023 | 15.56° C | 82% | 1018.5 hPa | 0 mm | - | - | - |
| 1788137121 | 15.56° C | 81% | 1018.5 hPa | 0 mm | - | - | - |
| 1788136220 | 15.56° C | 81% | 1018.6 hPa | 0 mm | - | - | - |
| 1788135317 | 15.56° C | 80% | 1018.4 hPa | 0 mm | - | - | - |
| 1788134416 | 15.56° C | 79% | 1018.4 hPa | 0 mm | - | - | - |
| 1788133513 | 16.11° C | 78% | 1018.3 hPa | 0 mm | - | - | - |
| 1788132616 | 16.11° C | 77% | 1018.3 hPa | 0 mm | - | - | - |
| 1788131708 | 16.67° C | 75% | 1018.3 hPa | 0 mm | - | - | - |
| 1788130804 | 17.22° C | 73% | 1018.2 hPa | 0 mm | - | - | - |
| 1788129902 | 17.22° C | 71% | 1017.9 hPa | 0 mm | - | - | - |
| 1788129057 | 17.78° C | 63% | 1017.8 hPa | 0 mm | - | - | - |
| 1788128155 | 18.89° C | 59% | 1017.5 hPa | 0 mm | - | - | - |
| 1788127260 | 20.56° C | 47% | 1017.5 hPa | 0 mm | - | - | - |
| 1788126349 | 21.11° C | 43% | 1017.1 hPa | 0 mm | - | - | - |
| 1788125447 | 21.11° C | 43% | 1016.9 hPa | 0 mm | - | - | - |
| 1788124550 | 21.67° C | 41% | 1016.7 hPa | 0 mm | - | - | - |
| 1788123649 | 22.22° C | 40% | 1016.7 hPa | 0 mm | - | - | - |
| 1788122756 | 22.22° C | 39% | 1016.5 hPa | 0 mm | - | - | - |
* Rain latest hour (hover to see other rain measurements)
** Current wind speed in m/s (hover to see current wind gust speed)